sensor_id;sensor_type;location;lat;lon;timestamp;temperature;humidity
14119;DHT22;7138;49.246;9.100;2023-12-29T00:00:55;8.60;99.90
14119;DHT22;7138;49.246;9.100;2023-12-29T00:03:21;8.70;99.90
14119;DHT22;7138;49.246;9.100;2023-12-29T00:05:47;8.70;99.90
14119;DHT22;7138;49.246;9.100;2023-12-29T00:08:13;8.70;99.90
14119;DHT22;7138;49.246;9.100;2023-12-29T00:10:40;8.70;99.90
14119;DHT22;7138;49.246;9.100;2023-12-29T00:13:06;8.70;99.90
14119;DHT22;7138;49.246;9.100;2023-12-29T00:15:31;8.70;99.90
14119;DHT22;7138;49.246;9.100;2023-12-29T00:17:57;8.80;99.90
14119;DHT22;7138;49.246;9.100;2023-12-29T00:20:23;8.80;99.90
14119;DHT22;7138;49.246;9.100;2023-12-29T00:22:49;8.80;99.90
14119;DHT22;7138;49.246;9.100;2023-12-29T00:25:14;8.80;99.90
14119;DHT22;7138;49.246;9.100;2023-12-29T00:27:42;8.80;99.90
14119;DHT22;7138;49.246;9.100;2023-12-29T00:30:08;8.80;99.90
14119;DHT22;7138;49.246;9.100;2023-12-29T00:32:35;8.80;99.90
14119;DHT22;7138;49.246;9.100;2023-12-29T00:35:01;8.80;99.90
14119;DHT22;7138;49.246;9.100;2023-12-29T00:37:26;8.80;99.90
14119;DHT22;7138;49.246;9.100;2023-12-29T00:39:52;8.80;99.90
14119;DHT22;7138;49.246;9.100;2023-12-29T00:42:18;8.80;99.90
14119;DHT22;7138;49.246;9.100;2023-12-29T00:44:45;8.80;99.90
14119;DHT22;7138;49.246;9.100;2023-12-29T00:47:11;8.80;99.90
14119;DHT22;7138;49.246;9.100;2023-12-29T00:49:38;8.80;99.90
14119;DHT22;7138;49.246;9.100;2023-12-29T00:52:05;8.80;99.90
14119;DHT22;7138;49.246;9.100;2023-12-29T00:54:31;8.80;99.90
14119;DHT22;7138;49.246;9.100;2023-12-29T00:56:57;8.80;99.90
14119;DHT22;7138;49.246;9.100;2023-12-29T00:59:23;8.80;99.90
14119;DHT22;7138;49.246;9.100;2023-12-29T01:01:50;8.80;99.90
14119;DHT22;7138;49.246;9.100;2023-12-29T01:04:16;8.90;99.90
14119;DHT22;7138;49.246;9.100;2023-12-29T01:06:41;8.90;99.90
14119;DHT22;7138;49.246;9.100;2023-12-29T01:09:07;8.90;99.90
14119;DHT22;7138;49.246;9.100;2023-12-29T01:11:34;8.80;99.90
14119;DHT22;7138;49.246;9.100;2023-12-29T01:14:00;8.80;99.90
14119;DHT22;7138;49.246;9.100;2023-12-29T01:16:26;8.90;99.90
14119;DHT22;7138;49.246;9.100;2023-12-29T01:18:54;8.80;99.90
14119;DHT22;7138;49.246;9.100;2023-12-29T01:21:19;8.90;99.90
14119;DHT22;7138;49.246;9.100;2023-12-29T01:23:45;8.80;99.90
14119;DHT22;7138;49.246;9.100;2023-12-29T01:26:11;8.80;99.90
14119;DHT22;7138;49.246;9.100;2023-12-29T01:28:37;8.80;99.90
14119;DHT22;7138;49.246;9.100;2023-12-29T01:31:03;8.90;99.90
14119;DHT22;7138;49.246;9.100;2023-12-29T01:33:28;8.80;99.90
14119;DHT22;7138;49.246;9.100;2023-12-29T01:35:56;8.80;99.90
14119;DHT22;7138;49.246;9.100;2023-12-29T01:38:21;8.80;99.90
14119;DHT22;7138;49.246;9.100;2023-12-29T01:40:47;8.80;99.90
14119;DHT22;7138;49.246;9.100;2023-12-29T01:43:13;8.80;99.90
14119;DHT22;7138;49.246;9.100;2023-12-29T01:45:39;8.80;99.90
14119;DHT22;7138;49.246;9.100;2023-12-29T01:48:06;8.80;99.90
14119;DHT22;7138;49.246;9.100;2023-12-29T01:50:33;8.80;99.90
14119;DHT22;7138;49.246;9.100;2023-12-29T01:53:01;8.70;99.90
14119;DHT22;7138;49.246;9.100;2023-12-29T01:55:29;8.80;99.90
14119;DHT22;7138;49.246;9.100;2023-12-29T01:57:56;8.80;99.90
14119;DHT22;7138;49.246;9.100;2023-12-29T02:00:22;8.70;99.90
14119;DHT22;7138;49.246;9.100;2023-12-29T02:02:49;8.70;99.90
14119;DHT22;7138;49.246;9.100;2023-12-29T02:05:15;8.70;99.90
14119;DHT22;7138;49.246;9.100;2023-12-29T02:07:43;8.70;99.90
14119;DHT22;7138;49.246;9.100;2023-12-29T02:10:10;8.60;99.90
14119;DHT22;7138;49.246;9.100;2023-12-29T02:12:39;8.60;99.90
14119;DHT22;7138;49.246;9.100;2023-12-29T02:15:07;8.50;99.90
14119;DHT22;7138;49.246;9.100;2023-12-29T02:17:39;8.50;99.90
14119;DHT22;7138;49.246;9.100;2023-12-29T02:20:08;8.50;99.90
14119;DHT22;7138;49.246;9.100;2023-12-29T02:22:35;8.40;99.90
14119;DHT22;7138;49.246;9.100;2023-12-29T02:25:02;8.40;99.90
14119;DHT22;7138;49.246;9.100;2023-12-29T02:27:37;8.40;99.90
14119;DHT22;7138;49.246;9.100;2023-12-29T02:30:11;8.50;99.90
14119;DHT22;7138;49.246;9.100;2023-12-29T02:32:45;8.40;99.90
14119;DHT22;7138;49.246;9.100;2023-12-29T02:35:14;8.50;99.90
14119;DHT22;7138;49.246;9.100;2023-12-29T02:37:44;8.40;99.90
14119;DHT22;7138;49.246;9.100;2023-12-29T02:40:12;8.40;99.90
14119;DHT22;7138;49.246;9.100;2023-12-29T02:42:44;8.30;99.90
14119;DHT22;7138;49.246;9.100;2023-12-29T02:45:11;8.40;99.90
14119;DHT22;7138;49.246;9.100;2023-12-29T02:47:37;8.40;99.90
14119;DHT22;7138;49.246;9.100;2023-12-29T02:50:04;8.40;99.90
14119;DHT22;7138;49.246;9.100;2023-12-29T02:52:30;8.50;99.90
14119;DHT22;7138;49.246;9.100;2023-12-29T02:54:55;8.50;99.90
14119;DHT22;7138;49.246;9.100;2023-12-29T02:57:23;8.50;99.90
14119;DHT22;7138;49.246;9.100;2023-12-29T02:59:48;8.50;99.90
14119;DHT22;7138;49.246;9.100;2023-12-29T03:02:14;8.40;99.90
14119;DHT22;7138;49.246;9.100;2023-12-29T03:04:40;8.40;99.90
14119;DHT22;7138;49.246;9.100;2023-12-29T03:07:06;8.40;99.90
14119;DHT22;7138;49.246;9.100;2023-12-29T03:09:32;8.40;99.90
14119;DHT22;7138;49.246;9.100;2023-12-29T03:11:58;8.40;99.90
14119;DHT22;7138;49.246;9.100;2023-12-29T03:14:25;8.40;99.90
14119;DHT22;7138;49.246;9.100;2023-12-29T03:16:51;8.40;99.90
14119;DHT22;7138;49.246;9.100;2023-12-29T03:19:16;8.40;99.90
14119;DHT22;7138;49.246;9.100;2023-12-29T03:21:42;8.50;99.90
14119;DHT22;7138;49.246;9.100;2023-12-29T03:24:08;8.40;99.90
14119;DHT22;7138;49.246;9.100;2023-12-29T03:26:34;8.40;99.90
14119;DHT22;7138;49.246;9.100;2023-12-29T03:28:59;8.40;99.90
14119;DHT22;7138;49.246;9.100;2023-12-29T03:31:27;8.40;99.90
14119;DHT22;7138;49.246;9.100;2023-12-29T03:33:52;8.40;99.90
14119;DHT22;7138;49.246;9.100;2023-12-29T03:36:18;8.40;99.90
14119;DHT22;7138;49.246;9.100;2023-12-29T03:38:44;8.50;99.90
14119;DHT22;7138;49.246;9.100;2023-12-29T03:41:10;8.50;99.90
14119;DHT22;7138;49.246;9.100;2023-12-29T03:43:36;8.50;99.90
14119;DHT22;7138;49.246;9.100;2023-12-29T03:46:01;8.50;99.90
14119;DHT22;7138;49.246;9.100;2023-12-29T03:48:29;8.50;99.90
14119;DHT22;7138;49.246;9.100;2023-12-29T03:50:54;8.50;99.90
14119;DHT22;7138;49.246;9.100;2023-12-29T03:53:20;8.50;99.90
14119;DHT22;7138;49.246;9.100;2023-12-29T03:55:46;8.50;99.90
14119;DHT22;7138;49.246;9.100;2023-12-29T03:58:12;8.40;99.90
14119;DHT22;7138;49.246;9.100;2023-12-29T04:00:38;8.30;99.90
14119;DHT22;7138;49.246;9.100;2023-12-29T04:03:06;8.40;99.90
14119;DHT22;7138;49.246;9.100;2023-12-29T04:05:34;8.40;99.90
14119;DHT22;7138;49.246;9.100;2023-12-29T04:07:59;8.40;99.90
14119;DHT22;7138;49.246;9.100;2023-12-29T04:10:25;8.40;99.90
14119;DHT22;7138;49.246;9.100;2023-12-29T04:12:51;8.40;99.90
14119;DHT22;7138;49.246;9.100;2023-12-29T04:15:17;8.40;99.90
14119;DHT22;7138;49.246;9.100;2023-12-29T04:17:43;8.50;99.90
14119;DHT22;7138;49.246;9.100;2023-12-29T04:20:09;8.40;99.90
14119;DHT22;7138;49.246;9.100;2023-12-29T04:22:36;8.50;99.90
14119;DHT22;7138;49.246;9.100;2023-12-29T04:25:02;8.50;99.90
14119;DHT22;7138;49.246;9.100;2023-12-29T04:27:29;8.60;99.90
14119;DHT22;7138;49.246;9.100;2023-12-29T04:29:55;8.70;99.90
14119;DHT22;7138;49.246;9.100;2023-12-29T04:32:20;8.60;99.90
14119;DHT22;7138;49.246;9.100;2023-12-29T04:34:46;8.70;99.90
14119;DHT22;7138;49.246;9.100;2023-12-29T04:37:12;8.70;99.90
14119;DHT22;7138;49.246;9.100;2023-12-29T04:39:39;8.70;99.90
14119;DHT22;7138;49.246;9.100;2023-12-29T04:42:05;8.70;99.90
14119;DHT22;7138;49.246;9.100;2023-12-29T04:44:31;8.70;99.90
14119;DHT22;7138;49.246;9.100;2023-12-29T04:46:56;8.80;99.90
14119;DHT22;7138;49.246;9.100;2023-12-29T04:49:22;8.80;99.90
14119;DHT22;7138;49.246;9.100;2023-12-29T04:51:48;8.70;99.90
14119;DHT22;7138;49.246;9.100;2023-12-29T04:54:14;8.80;99.90
14119;DHT22;7138;49.246;9.100;2023-12-29T04:56:41;8.70;99.90
14119;DHT22;7138;49.246;9.100;2023-12-29T04:59:07;8.80;99.90
14119;DHT22;7138;49.246;9.100;2023-12-29T05:01:32;8.80;99.90
14119;DHT22;7138;49.246;9.100;2023-12-29T05:03:58;8.80;99.90
14119;DHT22;7138;49.246;9.100;2023-12-29T05:06:24;8.80;99.90
14119;DHT22;7138;49.246;9.100;2023-12-29T05:08:50;8.80;99.90
14119;DHT22;7138;49.246;9.100;2023-12-29T05:11:16;8.80;99.90
14119;DHT22;7138;49.246;9.100;2023-12-29T05:13:43;8.80;99.90
14119;DHT22;7138;49.246;9.100;2023-12-29T05:16:09;8.80;99.90
14119;DHT22;7138;49.246;9.100;2023-12-29T05:18:35;8.80;99.90
14119;DHT22;7138;49.246;9.100;2023-12-29T05:21:01;8.80;99.90
14119;DHT22;7138;49.246;9.100;2023-12-29T05:23:27;8.80;99.90
14119;DHT22;7138;49.246;9.100;2023-12-29T05:25:53;8.80;99.90
14119;DHT22;7138;49.246;9.100;2023-12-29T05:28:18;8.80;99.90
14119;DHT22;7138;49.246;9.100;2023-12-29T05:30:46;8.80;99.90
14119;DHT22;7138;49.246;9.100;2023-12-29T05:33:12;8.80;99.90
14119;DHT22;7138;49.246;9.100;2023-12-29T05:35:37;8.70;99.90
14119;DHT22;7138;49.246;9.100;2023-12-29T05:38:03;8.70;99.90
14119;DHT22;7138;49.246;9.100;2023-12-29T05:40:29;8.70;99.90
14119;DHT22;7138;49.246;9.100;2023-12-29T05:42:55;8.60;99.90
14119;DHT22;7138;49.246;9.100;2023-12-29T05:45:21;8.60;99.90
14119;DHT22;7138;49.246;9.100;2023-12-29T05:47:48;8.50;99.90
14119;DHT22;7138;49.246;9.100;2023-12-29T05:50:14;8.60;99.90
14119;DHT22;7138;49.246;9.100;2023-12-29T05:52:40;8.50;99.90
14119;DHT22;7138;49.246;9.100;2023-12-29T05:55:06;8.50;99.90
14119;DHT22;7138;49.246;9.100;2023-12-29T05:57:32;8.50;99.90
14119;DHT22;7138;49.246;9.100;2023-12-29T05:59:58;8.40;99.90
14119;DHT22;7138;49.246;9.100;2023-12-29T06:02:24;8.30;99.90
14119;DHT22;7138;49.246;9.100;2023-12-29T06:04:51;8.30;99.90
14119;DHT22;7138;49.246;9.100;2023-12-29T06:07:17;8.30;99.90
14119;DHT22;7138;49.246;9.100;2023-12-29T06:09:43;8.30;99.90
14119;DHT22;7138;49.246;9.100;2023-12-29T06:12:08;8.20;99.90
14119;DHT22;7138;49.246;9.100;2023-12-29T06:14:36;8.20;99.90
14119;DHT22;7138;49.246;9.100;2023-12-29T06:17:02;8.20;99.90
14119;DHT22;7138;49.246;9.100;2023-12-29T06:19:28;8.20;99.90
14119;DHT22;7138;49.246;9.100;2023-12-29T06:21:55;8.20;99.90
14119;DHT22;7138;49.246;9.100;2023-12-29T06:24:21;8.10;99.90
14119;DHT22;7138;49.246;9.100;2023-12-29T06:26:47;8.20;99.90
14119;DHT22;7138;49.246;9.100;2023-12-29T06:29:13;8.20;99.90
14119;DHT22;7138;49.246;9.100;2023-12-29T06:31:40;8.20;99.90
14119;DHT22;7138;49.246;9.100;2023-12-29T06:34:07;8.20;99.90
14119;DHT22;7138;49.246;9.100;2023-12-29T06:36:33;8.30;99.90
14119;DHT22;7138;49.246;9.100;2023-12-29T06:39:00;8.30;99.90
14119;DHT22;7138;49.246;9.100;2023-12-29T06:41:26;8.30;99.90
14119;DHT22;7138;49.246;9.100;2023-12-29T06:43:52;8.30;99.90
14119;DHT22;7138;49.246;9.100;2023-12-29T06:46:17;8.30;99.90
14119;DHT22;7138;49.246;9.100;2023-12-29T06:48:43;8.30;99.90
14119;DHT22;7138;49.246;9.100;2023-12-29T06:51:15;8.30;99.90
14119;DHT22;7138;49.246;9.100;2023-12-29T06:53:41;8.20;99.90
14119;DHT22;7138;49.246;9.100;2023-12-29T06:56:12;8.30;99.90
14119;DHT22;7138;49.246;9.100;2023-12-29T06:58:39;8.40;99.90
14119;DHT22;7138;49.246;9.100;2023-12-29T07:01:05;8.40;99.90
14119;DHT22;7138;49.246;9.100;2023-12-29T07:03:31;8.40;99.90
14119;DHT22;7138;49.246;9.100;2023-12-29T07:05:56;8.40;99.90
14119;DHT22;7138;49.246;9.100;2023-12-29T07:08:22;8.40;99.90
14119;DHT22;7138;49.246;9.100;2023-12-29T07:10:48;8.40;99.90
14119;DHT22;7138;49.246;9.100;2023-12-29T07:13:17;8.50;99.90
14119;DHT22;7138;49.246;9.100;2023-12-29T07:15:42;8.50;99.90
14119;DHT22;7138;49.246;9.100;2023-12-29T07:18:08;8.50;99.90
14119;DHT22;7138;49.246;9.100;2023-12-29T07:20:34;8.50;99.90
14119;DHT22;7138;49.246;9.100;2023-12-29T07:23:00;8.50;99.90
14119;DHT22;7138;49.246;9.100;2023-12-29T07:25:26;8.50;99.90
14119;DHT22;7138;49.246;9.100;2023-12-29T07:27:52;8.50;99.90
14119;DHT22;7138;49.246;9.100;2023-12-29T07:30:19;8.50;99.90
14119;DHT22;7138;49.246;9.100;2023-12-29T07:32:45;8.50;99.90
14119;DHT22;7138;49.246;9.100;2023-12-29T07:35:11;8.60;99.90
14119;DHT22;7138;49.246;9.100;2023-12-29T07:37:37;8.60;99.90
14119;DHT22;7138;49.246;9.100;2023-12-29T07:40:03;8.60;99.90
14119;DHT22;7138;49.246;9.100;2023-12-29T07:42:30;8.60;99.90
14119;DHT22;7138;49.246;9.100;2023-12-29T07:44:55;8.60;99.90
14119;DHT22;7138;49.246;9.100;2023-12-29T07:47:23;8.60;99.90
14119;DHT22;7138;49.246;9.100;2023-12-29T07:49:49;8.60;99.90
14119;DHT22;7138;49.246;9.100;2023-12-29T07:52:14;8.70;99.90
14119;DHT22;7138;49.246;9.100;2023-12-29T07:54:40;8.70;99.90
14119;DHT22;7138;49.246;9.100;2023-12-29T07:57:06;8.60;99.90
14119;DHT22;7138;49.246;9.100;2023-12-29T07:59:32;8.60;99.90
14119;DHT22;7138;49.246;9.100;2023-12-29T08:01:58;8.60;99.90
14119;DHT22;7138;49.246;9.100;2023-12-29T08:04:25;8.60;99.90
14119;DHT22;7138;49.246;9.100;2023-12-29T08:06:51;8.60;99.90
14119;DHT22;7138;49.246;9.100;2023-12-29T08:09:16;8.60;99.90
14119;DHT22;7138;49.246;9.100;2023-12-29T08:11:42;8.70;99.90
14119;DHT22;7138;49.246;9.100;2023-12-29T08:14:08;8.80;99.90
14119;DHT22;7138;49.246;9.100;2023-12-29T08:16:37;8.80;99.90
14119;DHT22;7138;49.246;9.100;2023-12-29T08:19:04;8.80;99.90
14119;DHT22;7138;49.246;9.100;2023-12-29T08:21:31;8.80;99.90
14119;DHT22;7138;49.246;9.100;2023-12-29T08:23:57;8.80;99.90
14119;DHT22;7138;49.246;9.100;2023-12-29T08:26:23;8.80;99.90
14119;DHT22;7138;49.246;9.100;2023-12-29T08:28:49;8.80;99.90
14119;DHT22;7138;49.246;9.100;2023-12-29T08:31:15;8.80;99.90
14119;DHT22;7138;49.246;9.100;2023-12-29T08:33:41;8.80;99.90
14119;DHT22;7138;49.246;9.100;2023-12-29T08:36:07;8.80;99.90
14119;DHT22;7138;49.246;9.100;2023-12-29T08:38:35;8.80;99.90
14119;DHT22;7138;49.246;9.100;2023-12-29T08:41:00;8.80;99.90
14119;DHT22;7138;49.246;9.100;2023-12-29T08:43:26;8.80;99.90
14119;DHT22;7138;49.246;9.100;2023-12-29T08:45:52;8.80;99.90
14119;DHT22;7138;49.246;9.100;2023-12-29T08:48:18;8.80;99.90
14119;DHT22;7138;49.246;9.100;2023-12-29T08:50:43;8.80;99.90
14119;DHT22;7138;49.246;9.100;2023-12-29T08:53:09;8.90;99.90
14119;DHT22;7138;49.246;9.100;2023-12-29T08:55:37;8.90;99.90
14119;DHT22;7138;49.246;9.100;2023-12-29T08:58:03;9.00;99.90
14119;DHT22;7138;49.246;9.100;2023-12-29T09:00:29;9.10;99.90
14119;DHT22;7138;49.246;9.100;2023-12-29T09:02:55;9.10;99.90
14119;DHT22;7138;49.246;9.100;2023-12-29T09:05:21;9.20;99.90
14119;DHT22;7138;49.246;9.100;2023-12-29T09:07:47;9.30;99.90
14119;DHT22;7138;49.246;9.100;2023-12-29T09:10:13;9.20;99.90
14119;DHT22;7138;49.246;9.100;2023-12-29T09:12:41;9.20;99.90
14119;DHT22;7138;49.246;9.100;2023-12-29T09:15:07;9.30;99.90
14119;DHT22;7138;49.246;9.100;2023-12-29T09:17:33;9.40;99.90
14119;DHT22;7138;49.246;9.100;2023-12-29T09:19:59;9.50;99.90
14119;DHT22;7138;49.246;9.100;2023-12-29T09:22:25;9.60;99.90
14119;DHT22;7138;49.246;9.100;2023-12-29T09:24:51;9.80;99.90
14119;DHT22;7138;49.246;9.100;2023-12-29T09:27:20;9.90;99.90
14119;DHT22;7138;49.246;9.100;2023-12-29T09:29:47;10.00;99.90
14119;DHT22;7138;49.246;9.100;2023-12-29T09:32:13;10.10;99.90
14119;DHT22;7138;49.246;9.100;2023-12-29T09:34:39;10.20;99.90
14119;DHT22;7138;49.246;9.100;2023-12-29T09:37:04;10.30;99.90
14119;DHT22;7138;49.246;9.100;2023-12-29T09:39:30;10.10;99.90
14119;DHT22;7138;49.246;9.100;2023-12-29T09:41:58;10.00;99.90
14119;DHT22;7138;49.246;9.100;2023-12-29T09:44:28;10.10;99.90
14119;DHT22;7138;49.246;9.100;2023-12-29T09:47:01;10.10;99.90
14119;DHT22;7138;49.246;9.100;2023-12-29T09:49:34;10.30;99.90
14119;DHT22;7138;49.246;9.100;2023-12-29T09:52:05;10.40;99.90
14119;DHT22;7138;49.246;9.100;2023-12-29T09:54:33;10.40;99.90
14119;DHT22;7138;49.246;9.100;2023-12-29T09:57:02;10.40;99.90
14119;DHT22;7138;49.246;9.100;2023-12-29T09:59:29;10.40;99.90
14119;DHT22;7138;49.246;9.100;2023-12-29T10:01:59;10.40;99.90
14119;DHT22;7138;49.246;9.100;2023-12-29T10:04:25;10.40;99.90
14119;DHT22;7138;49.246;9.100;2023-12-29T10:06:53;10.70;99.90
14119;DHT22;7138;49.246;9.100;2023-12-29T10:09:22;11.00;99.90
14119;DHT22;7138;49.246;9.100;2023-12-29T10:11:50;11.00;99.90
14119;DHT22;7138;49.246;9.100;2023-12-29T10:14:22;11.10;99.90
14119;DHT22;7138;49.246;9.100;2023-12-29T10:16:56;11.20;99.90
14119;DHT22;7138;49.246;9.100;2023-12-29T10:19:35;11.30;99.90
14119;DHT22;7138;49.246;9.100;2023-12-29T10:22:08;11.10;99.90
14119;DHT22;7138;49.246;9.100;2023-12-29T10:24:39;11.10;99.90
14119;DHT22;7138;49.246;9.100;2023-12-29T10:27:07;11.40;99.90
14119;DHT22;7138;49.246;9.100;2023-12-29T10:29:33;11.40;99.90
14119;DHT22;7138;49.246;9.100;2023-12-29T10:32:01;11.50;99.90
14119;DHT22;7138;49.246;9.100;2023-12-29T10:34:27;11.60;99.90
14119;DHT22;7138;49.246;9.100;2023-12-29T10:36:57;11.80;99.90
14119;DHT22;7138;49.246;9.100;2023-12-29T10:39:24;11.90;99.90
14119;DHT22;7138;49.246;9.100;2023-12-29T10:41:50;11.70;99.90
14119;DHT22;7138;49.246;9.100;2023-12-29T10:44:27;11.80;99.90
14119;DHT22;7138;49.246;9.100;2023-12-29T10:46:53;11.70;99.90
14119;DHT22;7138;49.246;9.100;2023-12-29T10:49:20;11.50;99.90
14119;DHT22;7138;49.246;9.100;2023-12-29T10:51:46;11.30;99.90
14119;DHT22;7138;49.246;9.100;2023-12-29T10:54:19;11.30;99.90
14119;DHT22;7138;49.246;9.100;2023-12-29T10:57:00;11.50;99.90
14119;DHT22;7138;49.246;9.100;2023-12-29T10:59:28;11.70;99.90
14119;DHT22;7138;49.246;9.100;2023-12-29T11:01:54;11.60;99.90
14119;DHT22;7138;49.246;9.100;2023-12-29T11:04:23;11.70;99.90
14119;DHT22;7138;49.246;9.100;2023-12-29T11:06:49;11.70;99.90
14119;DHT22;7138;49.246;9.100;2023-12-29T11:09:27;11.80;99.90
14119;DHT22;7138;49.246;9.100;2023-12-29T11:11:55;11.90;99.90
14119;DHT22;7138;49.246;9.100;2023-12-29T11:14:23;11.80;99.90
14119;DHT22;7138;49.246;9.100;2023-12-29T11:16:51;11.90;99.90
14119;DHT22;7138;49.246;9.100;2023-12-29T11:19:18;12.00;99.90
14119;DHT22;7138;49.246;9.100;2023-12-29T11:21:46;11.90;99.90
14119;DHT22;7138;49.246;9.100;2023-12-29T11:24:14;12.20;99.90
14119;DHT22;7138;49.246;9.100;2023-12-29T11:26:40;12.20;99.90
14119;DHT22;7138;49.246;9.100;2023-12-29T11:29:09;12.20;99.90
14119;DHT22;7138;49.246;9.100;2023-12-29T11:31:37;12.20;99.90
14119;DHT22;7138;49.246;9.100;2023-12-29T11:34:06;12.30;99.90
14119;DHT22;7138;49.246;9.100;2023-12-29T11:36:41;12.30;99.90
14119;DHT22;7138;49.246;9.100;2023-12-29T11:39:19;12.30;99.90
14119;DHT22;7138;49.246;9.100;2023-12-29T11:41:56;12.20;99.90
14119;DHT22;7138;49.246;9.100;2023-12-29T11:44:27;12.20;99.90
14119;DHT22;7138;49.246;9.100;2023-12-29T11:46:54;12.00;99.90
14119;DHT22;7138;49.246;9.100;2023-12-29T11:49:22;11.80;99.90
14119;DHT22;7138;49.246;9.100;2023-12-29T11:51:49;12.00;99.90
14119;DHT22;7138;49.246;9.100;2023-12-29T11:54:23;11.90;99.90
14119;DHT22;7138;49.246;9.100;2023-12-29T11:56:50;12.10;99.90
14119;DHT22;7138;49.246;9.100;2023-12-29T11:59:18;12.00;99.90
14119;DHT22;7138;49.246;9.100;2023-12-29T12:01:47;11.90;99.90
14119;DHT22;7138;49.246;9.100;2023-12-29T12:04:36;11.80;99.90
14119;DHT22;7138;49.246;9.100;2023-12-29T12:07:15;11.90;99.90
14119;DHT22;7138;49.246;9.100;2023-12-29T12:09:43;11.90;99.90
14119;DHT22;7138;49.246;9.100;2023-12-29T12:12:10;11.90;99.90
14119;DHT22;7138;49.246;9.100;2023-12-29T12:14:53;11.80;99.90
14119;DHT22;7138;49.246;9.100;2023-12-29T12:17:29;11.70;99.90
14119;DHT22;7138;49.246;9.100;2023-12-29T12:19:57;11.60;99.90
14119;DHT22;7138;49.246;9.100;2023-12-29T12:22:25;11.50;99.90
14119;DHT22;7138;49.246;9.100;2023-12-29T12:24:57;11.40;99.90
14119;DHT22;7138;49.246;9.100;2023-12-29T12:27:24;11.40;99.90
14119;DHT22;7138;49.246;9.100;2023-12-29T12:29:53;11.40;99.90
14119;DHT22;7138;49.246;9.100;2023-12-29T12:32:22;11.50;99.90
14119;DHT22;7138;49.246;9.100;2023-12-29T12:34:47;11.40;99.90
14119;DHT22;7138;49.246;9.100;2023-12-29T12:37:18;11.40;99.90
14119;DHT22;7138;49.246;9.100;2023-12-29T12:39:45;11.40;99.90
14119;DHT22;7138;49.246;9.100;2023-12-29T12:42:13;11.40;99.90
14119;DHT22;7138;49.246;9.100;2023-12-29T12:44:41;11.40;99.90
14119;DHT22;7138;49.246;9.100;2023-12-29T12:47:16;11.50;99.90
14119;DHT22;7138;49.246;9.100;2023-12-29T12:49:50;11.40;99.90
14119;DHT22;7138;49.246;9.100;2023-12-29T12:52:16;11.40;99.90
14119;DHT22;7138;49.246;9.100;2023-12-29T12:54:42;11.40;99.90
14119;DHT22;7138;49.246;9.100;2023-12-29T12:57:08;11.50;99.90
14119;DHT22;7138;49.246;9.100;2023-12-29T12:59:36;11.60;99.90
14119;DHT22;7138;49.246;9.100;2023-12-29T13:02:02;11.50;99.90
14119;DHT22;7138;49.246;9.100;2023-12-29T13:04:31;11.50;99.90
14119;DHT22;7138;49.246;9.100;2023-12-29T13:06:57;11.50;99.90
14119;DHT22;7138;49.246;9.100;2023-12-29T13:09:23;11.50;99.90
14119;DHT22;7138;49.246;9.100;2023-12-29T13:11:49;11.40;99.90
14119;DHT22;7138;49.246;9.100;2023-12-29T13:14:21;11.30;99.90
14119;DHT22;7138;49.246;9.100;2023-12-29T13:16:49;11.30;99.90
14119;DHT22;7138;49.246;9.100;2023-12-29T13:19:16;11.20;99.90
14119;DHT22;7138;49.246;9.100;2023-12-29T13:21:47;11.20;99.90
14119;DHT22;7138;49.246;9.100;2023-12-29T13:24:13;11.20;99.90
14119;DHT22;7138;49.246;9.100;2023-12-29T13:26:44;11.10;99.90
14119;DHT22;7138;49.246;9.100;2023-12-29T13:29:12;11.10;99.90
14119;DHT22;7138;49.246;9.100;2023-12-29T13:31:39;11.10;99.90
14119;DHT22;7138;49.246;9.100;2023-12-29T13:34:12;11.10;99.90
14119;DHT22;7138;49.246;9.100;2023-12-29T13:36:48;11.10;99.90
14119;DHT22;7138;49.246;9.100;2023-12-29T13:39:23;11.00;99.90
14119;DHT22;7138;49.246;9.100;2023-12-29T13:41:55;11.00;99.90
14119;DHT22;7138;49.246;9.100;2023-12-29T13:44:25;11.00;99.90
14119;DHT22;7138;49.246;9.100;2023-12-29T13:46:53;11.00;99.90
14119;DHT22;7138;49.246;9.100;2023-12-29T13:49:22;11.00;99.90
14119;DHT22;7138;49.246;9.100;2023-12-29T13:51:48;11.10;99.90
14119;DHT22;7138;49.246;9.100;2023-12-29T13:54:14;11.10;99.90
14119;DHT22;7138;49.246;9.100;2023-12-29T13:56:51;11.10;99.90
14119;DHT22;7138;49.246;9.100;2023-12-29T13:59:17;11.10;99.90
14119;DHT22;7138;49.246;9.100;2023-12-29T14:01:43;11.10;99.90
14119;DHT22;7138;49.246;9.100;2023-12-29T14:04:11;11.00;99.90
14119;DHT22;7138;49.246;9.100;2023-12-29T14:06:43;11.00;99.90
14119;DHT22;7138;49.246;9.100;2023-12-29T14:09:16;11.00;99.90
14119;DHT22;7138;49.246;9.100;2023-12-29T14:11:46;10.90;99.90
14119;DHT22;7138;49.246;9.100;2023-12-29T14:14:13;11.00;99.90
14119;DHT22;7138;49.246;9.100;2023-12-29T14:16:39;11.10;99.90
14119;DHT22;7138;49.246;9.100;2023-12-29T14:19:05;11.10;99.90
14119;DHT22;7138;49.246;9.100;2023-12-29T14:21:32;11.10;99.90
14119;DHT22;7138;49.246;9.100;2023-12-29T14:24:05;11.10;99.90
14119;DHT22;7138;49.246;9.100;2023-12-29T14:26:33;11.00;99.90
14119;DHT22;7138;49.246;9.100;2023-12-29T14:29:03;11.00;99.90
14119;DHT22;7138;49.246;9.100;2023-12-29T14:31:34;10.90;99.90
14119;DHT22;7138;49.246;9.100;2023-12-29T14:34:01;10.90;99.90
14119;DHT22;7138;49.246;9.100;2023-12-29T14:36:27;10.90;99.90
14119;DHT22;7138;49.246;9.100;2023-12-29T14:38:54;10.90;99.90
14119;DHT22;7138;49.246;9.100;2023-12-29T14:41:21;10.90;99.90
14119;DHT22;7138;49.246;9.100;2023-12-29T14:43:47;10.90;99.90
14119;DHT22;7138;49.246;9.100;2023-12-29T14:46:12;10.80;99.90
14119;DHT22;7138;49.246;9.100;2023-12-29T14:48:38;10.80;99.90
14119;DHT22;7138;49.246;9.100;2023-12-29T14:51:04;10.80;99.90
14119;DHT22;7138;49.246;9.100;2023-12-29T14:53:30;10.80;99.90
14119;DHT22;7138;49.246;9.100;2023-12-29T14:55:56;10.80;99.90
14119;DHT22;7138;49.246;9.100;2023-12-29T14:58:23;10.70;99.90
14119;DHT22;7138;49.246;9.100;2023-12-29T15:00:49;10.60;99.90
14119;DHT22;7138;49.246;9.100;2023-12-29T15:03:15;10.50;99.90
14119;DHT22;7138;49.246;9.100;2023-12-29T15:05:41;10.40;99.90
14119;DHT22;7138;49.246;9.100;2023-12-29T15:08:09;10.40;99.90
14119;DHT22;7138;49.246;9.100;2023-12-29T15:10:34;10.30;99.90
14119;DHT22;7138;49.246;9.100;2023-12-29T15:13:01;10.30;99.90
14119;DHT22;7138;49.246;9.100;2023-12-29T15:15:28;10.30;99.90
14119;DHT22;7138;49.246;9.100;2023-12-29T15:17:54;10.30;99.90
14119;DHT22;7138;49.246;9.100;2023-12-29T15:20:20;10.30;99.90
14119;DHT22;7138;49.246;9.100;2023-12-29T15:22:45;10.20;99.90
14119;DHT22;7138;49.246;9.100;2023-12-29T15:25:11;10.30;99.90
14119;DHT22;7138;49.246;9.100;2023-12-29T15:27:37;10.30;99.90
14119;DHT22;7138;49.246;9.100;2023-12-29T15:30:04;10.30;99.90
14119;DHT22;7138;49.246;9.100;2023-12-29T15:32:32;10.40;99.90
14119;DHT22;7138;49.246;9.100;2023-12-29T15:34:57;10.30;99.90
14119;DHT22;7138;49.246;9.100;2023-12-29T15:37:23;10.30;99.90
14119;DHT22;7138;49.246;9.100;2023-12-29T15:39:49;10.30;99.90
14119;DHT22;7138;49.246;9.100;2023-12-29T15:42:15;10.30;99.90
14119;DHT22;7138;49.246;9.100;2023-12-29T15:44:41;10.30;99.90
14119;DHT22;7138;49.246;9.100;2023-12-29T15:47:07;10.20;99.90
14119;DHT22;7138;49.246;9.100;2023-12-29T15:49:36;10.20;99.90
14119;DHT22;7138;49.246;9.100;2023-12-29T15:52:02;10.20;99.90
14119;DHT22;7138;49.246;9.100;2023-12-29T15:54:28;10.10;99.90